Guenther Schulte — VRGK8 — position and weather

sailwx.info

Track history (hours):
 
Tides and Currents Weather Stations Pressure Air Temp Water Temp Dewpoint Dewpoint Depression Visibility Wind Speed Wind Dir Waves Ship Positions

Guenther Schulte

Last reported at 2017-Jan-23 22:33 UTC. Time now 2017-Jan-24 09:09 UTC.
Position S 36°14' E 174°57'.

Length 231 m; draft 9.6 m.

Type: Ship (hazmat cat C). MMSI: 477728800.

Date/timePositionNaut miles runAvg speedWind from/ knotsBaromVisibWave heightAir tempDewpointWater temp
2017-Jan-23 22:33S 36°14' E 174°57'10 9.6
2017-Jan-23 21:33S 36°24' E 174°59'10 9.6
2017-Jan-23 20:33S 36°33' E 174°60'9 9.4
2017-Jan-23 19:33S 36°41' E 174°53'1010.1
2017-Jan-23 18:33S 36°50' E 174°48'1 0.1
2017-Jan-23 03:03S 36°50' E 174°47'3 6.8
2017-Jan-23 02:34S 36°47' E 174°48'7 6.6
2017-Jan-23 01:33S 36°42' E 174°53'9 8.8
2017-Jan-23 00:33S 36°35' E 174°60'2 2.0
2017-Jan-22 23:33S 36°33' E 175°01'2 1.7
2017-Jan-22 22:33S 36°34' E 174°60'7 7.3
2017-Jan-22 21:33S 36°30' E 175°07'9 9.1
2017-Jan-22 20:33S 36°25' E 175°17'  
Track history (hours):
 
Tides and Currents Weather Stations Pressure Air Temp Water Temp Dewpoint Dewpoint Depression Visibility Wind Speed Wind Dir Waves Ship Positions

Guenther Schulte

Last reported at 2017-Jan-23 22:33 UTC. Time now 2017-Jan-24 09:09 UTC.
Position S 36°14' E 174°57'.

Length 231 m; draft 9.6 m.

Type: Ship (hazmat cat C). MMSI: 477728800.

Date/timePositionNaut miles runAvg speedWind from/ knotsBaromVisibWave heightAir tempDewpointWater temp
2017-Jan-23 22:33S 36°14' E 174°57'10 9.6
2017-Jan-23 21:33S 36°24' E 174°59'10 9.6
2017-Jan-23 20:33S 36°33' E 174°60'9 9.4
2017-Jan-23 19:33S 36°41' E 174°53'1010.1
2017-Jan-23 18:33S 36°50' E 174°48'1 0.1
2017-Jan-23 03:03S 36°50' E 174°47'3 6.8
2017-Jan-23 02:34S 36°47' E 174°48'7 6.6
2017-Jan-23 01:33S 36°42' E 174°53'9 8.8
2017-Jan-23 00:33S 36°35' E 174°60'2 2.0
2017-Jan-22 23:33S 36°33' E 175°01'2 1.7
2017-Jan-22 22:33S 36°34' E 174°60'7 7.3
2017-Jan-22 21:33S 36°30' E 175°07'9 9.1
2017-Jan-22 20:33S 36°25' E 175°17'  

Dump ship's entire track history